EGPB/LSI METAR and TAF weather

Enter ICAO airport designator
Station Type Date Time Source
EGPB METAR 2018/01/17 06:20 UTC NOAA

EGPB 170620Z 24018KT 9999 VCSH FEW007 SCT013 02/01 Q0979


Station Type Date Time Source
EGPB Decoded METAR 2018/01/17 06:20 UTC NOAA

Sumburgh Cape , United Kingdom (EGPB) 59-53N 001-18W
Jan 17, 2018 - 01:20 AM EST / 2018.01.17 0620 UTC
Wind: from the WSW (240 degrees) at 21 MPH (18 KT):0
Visibility: greater than 7 mile(s):0
Sky conditions: partly cloudy
Weather: showers in the vicinity
Temperature: 35 F (2 C)
Windchill: 23 F (-5 C):1
Dew Point: 33 F (1 C)
Relative Humidity: 93%
Pressure (altimeter): 28.91 in. Hg (0979 hPa)
ob: EGPB 170620Z 24018KT 9999 VCSH FEW007 SCT013 02/01 Q0979
cycle: 6

Station Type Date Time Source
EGPB TAF UTC NOAA

Error!


Example: see airport list